Terminal Aerodrome Forecast
Issued by NWS Wakefield, VA

Home | Current Version | Previous Version | Text Only | Print | Product List | Glossary On
Versions: 1 2 3 4 5 6 7 8 9 10 11 12 13 14 15 16 17 18
000
FTUS41 KAKQ 041746
TAFECG
TAF
KECG 041746Z 0418/0518 25012KT P6SM VCSH SCT020 BKN050
      TEMPO 0418/0421 3SM -TSRA BKN030CB
     FM050000 25008KT 5SM -RA BKN050 OVC100
     FM050400 23006KT P6SM BKN030
     FM051300 24004KT P6SM SCT040 BKN120=

USA.gov is the U.S. government's official web portal to all federal, state and local government web resources and services.